sensor_id;sensor_type;location;lat;lon;timestamp;pressure;altitude;pressure_sealevel;temperature;humidity
18850;BME280;4989;48.772;9.154;2022-10-31T00:00:13;98468.66;;;14.83;100.00
18850;BME280;4989;48.772;9.154;2022-10-31T00:05:17;98466.88;;;14.63;100.00
18850;BME280;4989;48.772;9.154;2022-10-31T00:10:19;98463.59;;;14.69;100.00
18850;BME280;4989;48.772;9.154;2022-10-31T00:15:22;98452.00;;;14.64;100.00
18850;BME280;4989;48.772;9.154;2022-10-31T00:20:24;98453.09;;;14.80;100.00
18850;BME280;4989;48.772;9.154;2022-10-31T00:25:28;98467.66;;;14.89;100.00
18850;BME280;4989;48.772;9.154;2022-10-31T00:30:31;98462.94;;;14.64;100.00
18850;BME280;4989;48.772;9.154;2022-10-31T00:35:34;98461.78;;;14.49;100.00
18850;BME280;4989;48.772;9.154;2022-10-31T00:40:37;98458.28;;;14.36;100.00
18850;BME280;4989;48.772;9.154;2022-10-31T00:45:40;98468.00;;;14.37;100.00
18850;BME280;4989;48.772;9.154;2022-10-31T00:50:43;98464.41;;;14.40;100.00
18850;BME280;4989;48.772;9.154;2022-10-31T00:55:45;98458.59;;;14.25;100.00
18850;BME280;4989;48.772;9.154;2022-10-31T01:00:48;98465.09;;;14.44;100.00
18850;BME280;4989;48.772;9.154;2022-10-31T01:11:10;98464.97;;;14.35;100.00
18850;BME280;4989;48.772;9.154;2022-10-31T01:16:17;98459.53;;;14.18;100.00
18850;BME280;4989;48.772;9.154;2022-10-31T01:21:22;98459.09;;;14.07;100.00
18850;BME280;4989;48.772;9.154;2022-10-31T01:26:28;98454.63;;;14.13;100.00
18850;BME280;4989;48.772;9.154;2022-10-31T01:31:36;98447.34;;;14.36;100.00
18850;BME280;4989;48.772;9.154;2022-10-31T01:36:39;98449.09;;;14.42;100.00
18850;BME280;4989;48.772;9.154;2022-10-31T01:41:52;98458.94;;;14.40;100.00
18850;BME280;4989;48.772;9.154;2022-10-31T01:47:24;98452.69;;;14.27;100.00
18850;BME280;4989;48.772;9.154;2022-10-31T01:52:36;98438.13;;;14.30;100.00
18850;BME280;4989;48.772;9.154;2022-10-31T01:57:43;98446.22;;;14.20;100.00
18850;BME280;4989;48.772;9.154;2022-10-31T02:02:51;98442.34;;;14.05;100.00
18850;BME280;4989;48.772;9.154;2022-10-31T02:08:12;98443.22;;;14.02;100.00
18850;BME280;4989;48.772;9.154;2022-10-31T02:13:16;98439.84;;;13.98;100.00
18850;BME280;4989;48.772;9.154;2022-10-31T02:18:24;98438.09;;;14.04;100.00
18850;BME280;4989;48.772;9.154;2022-10-31T02:34:40;98438.09;;;13.75;100.00
18850;BME280;4989;48.772;9.154;2022-10-31T02:40:00;98440.38;;;13.77;100.00
18850;BME280;4989;48.772;9.154;2022-10-31T02:45:29;98441.66;;;13.59;100.00
18850;BME280;4989;48.772;9.154;2022-10-31T02:50:35;98437.81;;;13.57;100.00
18850;BME280;4989;48.772;9.154;2022-10-31T02:55:57;98437.03;;;13.56;100.00
18850;BME280;4989;48.772;9.154;2022-10-31T03:11:45;98433.81;;;14.03;100.00
18850;BME280;4989;48.772;9.154;2022-10-31T03:16:52;98429.16;;;13.74;100.00
18850;BME280;4989;48.772;9.154;2022-10-31T03:22:04;98433.50;;;13.72;100.00
18850;BME280;4989;48.772;9.154;2022-10-31T03:27:13;98431.38;;;13.63;100.00
18850;BME280;4989;48.772;9.154;2022-10-31T03:32:30;98432.16;;;13.93;100.00
18850;BME280;4989;48.772;9.154;2022-10-31T03:37:36;98443.72;;;14.39;100.00
18850;BME280;4989;48.772;9.154;2022-10-31T03:42:53;98427.50;;;14.19;100.00
18850;BME280;4989;48.772;9.154;2022-10-31T03:47:58;98438.53;;;14.83;100.00
18850;BME280;4989;48.772;9.154;2022-10-31T03:58:19;98428.69;;;13.47;100.00
18850;BME280;4989;48.772;9.154;2022-10-31T04:03:26;98434.88;;;13.35;100.00
18850;BME280;4989;48.772;9.154;2022-10-31T04:08:36;98436.19;;;13.59;100.00
18850;BME280;4989;48.772;9.154;2022-10-31T04:13:44;98427.44;;;13.64;100.00
18850;BME280;4989;48.772;9.154;2022-10-31T04:18:55;98423.94;;;13.64;100.00
18850;BME280;4989;48.772;9.154;2022-10-31T04:23:58;98427.84;;;13.50;100.00
18850;BME280;4989;48.772;9.154;2022-10-31T04:29:04;98422.13;;;13.28;100.00
18850;BME280;4989;48.772;9.154;2022-10-31T04:34:07;98414.69;;;14.03;100.00
18850;BME280;4989;48.772;9.154;2022-10-31T04:39:09;98411.44;;;14.34;100.00
18850;BME280;4989;48.772;9.154;2022-10-31T04:44:27;98418.50;;;13.64;100.00
18850;BME280;4989;48.772;9.154;2022-10-31T04:49:34;98408.25;;;13.22;100.00
18850;BME280;4989;48.772;9.154;2022-10-31T04:54:37;98403.97;;;13.05;100.00
18850;BME280;4989;48.772;9.154;2022-10-31T05:00:19;98395.63;;;12.96;100.00
18850;BME280;4989;48.772;9.154;2022-10-31T05:05:26;98391.00;;;13.09;100.00
18850;BME280;4989;48.772;9.154;2022-10-31T05:10:30;98389.03;;;13.42;100.00
18850;BME280;4989;48.772;9.154;2022-10-31T05:15:34;98390.06;;;13.32;100.00
18850;BME280;4989;48.772;9.154;2022-10-31T05:20:42;98390.31;;;13.21;100.00
18850;BME280;4989;48.772;9.154;2022-10-31T05:26:24;98391.13;;;13.51;100.00
18850;BME280;4989;48.772;9.154;2022-10-31T05:31:29;98377.81;;;13.53;100.00
18850;BME280;4989;48.772;9.154;2022-10-31T05:36:32;98385.47;;;13.58;100.00
18850;BME280;4989;48.772;9.154;2022-10-31T05:41:38;98382.28;;;13.47;100.00
18850;BME280;4989;48.772;9.154;2022-10-31T05:46:54;98373.94;;;13.21;100.00
18850;BME280;4989;48.772;9.154;2022-10-31T05:52:23;98376.56;;;13.70;100.00
18850;BME280;4989;48.772;9.154;2022-10-31T05:57:33;98376.56;;;13.70;100.00
18850;BME280;4989;48.772;9.154;2022-10-31T06:02:36;98374.59;;;13.42;100.00
18850;BME280;4989;48.772;9.154;2022-10-31T06:08:01;98372.81;;;13.64;100.00
18850;BME280;4989;48.772;9.154;2022-10-31T06:13:05;98369.25;;;14.35;100.00
18850;BME280;4989;48.772;9.154;2022-10-31T06:18:17;98369.91;;;13.71;100.00
18850;BME280;4989;48.772;9.154;2022-10-31T06:23:22;98373.09;;;13.41;100.00
18850;BME280;4989;48.772;9.154;2022-10-31T06:28:33;98372.09;;;13.02;100.00
18850;BME280;4989;48.772;9.154;2022-10-31T06:33:47;98370.06;;;12.90;100.00
18850;BME280;4989;48.772;9.154;2022-10-31T06:38:50;98370.72;;;13.10;100.00
18850;BME280;4989;48.772;9.154;2022-10-31T06:43:56;98371.88;;;13.42;100.00
18850;BME280;4989;48.772;9.154;2022-10-31T06:49:25;98379.34;;;13.83;100.00
18850;BME280;4989;48.772;9.154;2022-10-31T06:54:29;98368.25;;;14.29;100.00
18850;BME280;4989;48.772;9.154;2022-10-31T06:59:32;98381.53;;;14.69;100.00
18850;BME280;4989;48.772;9.154;2022-10-31T07:04:43;98380.88;;;14.64;100.00
18850;BME280;4989;48.772;9.154;2022-10-31T07:09:48;98380.06;;;15.37;100.00
18850;BME280;4989;48.772;9.154;2022-10-31T07:14:55;98381.91;;;15.05;100.00
18850;BME280;4989;48.772;9.154;2022-10-31T07:19:58;98385.44;;;14.42;100.00
18850;BME280;4989;48.772;9.154;2022-10-31T07:25:01;98391.16;;;15.21;100.00
18850;BME280;4989;48.772;9.154;2022-10-31T07:30:22;98400.84;;;15.47;100.00
18850;BME280;4989;48.772;9.154;2022-10-31T07:35:29;98387.69;;;15.42;100.00
18850;BME280;4989;48.772;9.154;2022-10-31T07:40:33;98389.06;;;15.25;100.00
18850;BME280;4989;48.772;9.154;2022-10-31T07:45:37;98386.56;;;15.18;100.00
18850;BME280;4989;48.772;9.154;2022-10-31T07:50:58;98384.31;;;15.38;100.00
18850;BME280;4989;48.772;9.154;2022-10-31T07:56:26;98385.84;;;15.74;100.00
18850;BME280;4989;48.772;9.154;2022-10-31T08:01:29;98382.66;;;15.75;100.00
18850;BME280;4989;48.772;9.154;2022-10-31T08:07:00;98391.50;;;16.01;100.00
18850;BME280;4989;48.772;9.154;2022-10-31T08:12:09;98382.78;;;16.56;100.00
18850;BME280;4989;48.772;9.154;2022-10-31T08:17:12;98383.97;;;16.86;100.00
18850;BME280;4989;48.772;9.154;2022-10-31T08:22:32;98384.78;;;17.24;100.00
18850;BME280;4989;48.772;9.154;2022-10-31T08:27:36;98382.47;;;16.94;100.00
18850;BME280;4989;48.772;9.154;2022-10-31T08:32:38;98377.16;;;18.01;100.00
18850;BME280;4989;48.772;9.154;2022-10-31T08:37:59;98376.13;;;17.34;100.00
18850;BME280;4989;48.772;9.154;2022-10-31T08:43:05;98375.78;;;17.05;100.00
18850;BME280;4989;48.772;9.154;2022-10-31T08:48:14;98369.31;;;16.80;100.00
18850;BME280;4989;48.772;9.154;2022-10-31T08:53:18;98367.53;;;17.05;100.00
18850;BME280;4989;48.772;9.154;2022-10-31T08:58:29;98360.06;;;17.42;100.00
18850;BME280;4989;48.772;9.154;2022-10-31T09:03:37;98354.88;;;17.81;100.00
18850;BME280;4989;48.772;9.154;2022-10-31T09:08:40;98362.53;;;16.72;100.00
18850;BME280;4989;48.772;9.154;2022-10-31T09:13:42;98355.59;;;16.89;100.00
18850;BME280;4989;48.772;9.154;2022-10-31T09:18:50;98345.25;;;17.30;100.00
18850;BME280;4989;48.772;9.154;2022-10-31T09:23:53;98338.41;;;17.44;100.00
18850;BME280;4989;48.772;9.154;2022-10-31T09:28:56;98339.44;;;17.83;100.00
18850;BME280;4989;48.772;9.154;2022-10-31T09:34:00;98346.16;;;17.82;100.00
18850;BME280;4989;48.772;9.154;2022-10-31T09:39:11;98341.50;;;18.16;100.00
18850;BME280;4989;48.772;9.154;2022-10-31T09:49:59;98336.47;;;18.48;100.00
18850;BME280;4989;48.772;9.154;2022-10-31T09:55:17;98341.06;;;18.42;95.40
18850;BME280;4989;48.772;9.154;2022-10-31T10:00:22;98337.16;;;18.24;95.71
18850;BME280;4989;48.772;9.154;2022-10-31T10:05:27;98336.53;;;18.29;95.47
18850;BME280;4989;48.772;9.154;2022-10-31T10:21:35;98318.66;;;18.34;94.46
18850;BME280;4989;48.772;9.154;2022-10-31T10:27:09;98330.50;;;18.49;93.99
18850;BME280;4989;48.772;9.154;2022-10-31T10:32:25;98314.53;;;18.87;92.97
18850;BME280;4989;48.772;9.154;2022-10-31T10:37:39;98311.59;;;19.14;100.00
18850;BME280;4989;48.772;9.154;2022-10-31T10:48:44;98311.19;;;19.07;89.75
18850;BME280;4989;48.772;9.154;2022-10-31T10:54:02;98310.78;;;18.99;93.68
18850;BME280;4989;48.772;9.154;2022-10-31T10:59:20;98291.78;;;19.40;97.82
18850;BME280;4989;48.772;9.154;2022-10-31T11:04:32;98285.03;;;19.41;89.69
18850;BME280;4989;48.772;9.154;2022-10-31T11:09:36;98280.25;;;19.27;94.47
18850;BME280;4989;48.772;9.154;2022-10-31T11:14:52;98272.75;;;19.57;87.80
18850;BME280;4989;48.772;9.154;2022-10-31T11:20:26;98264.63;;;20.27;83.02
18850;BME280;4989;48.772;9.154;2022-10-31T11:25:25;98249.84;;;21.59;75.35
18850;BME280;4989;48.772;9.154;2022-10-31T11:30:28;98241.16;;;22.09;74.72
18850;BME280;4989;48.772;9.154;2022-10-31T11:35:32;98238.41;;;22.09;81.04
18850;BME280;4989;48.772;9.154;2022-10-31T11:40:34;98230.69;;;21.87;75.16
18850;BME280;4989;48.772;9.154;2022-10-31T11:45:37;98219.97;;;22.06;84.01
18850;BME280;4989;48.772;9.154;2022-10-31T11:50:41;98222.88;;;21.85;76.84
18850;BME280;4989;48.772;9.154;2022-10-31T11:55:45;98217.00;;;21.20;77.54
18850;BME280;4989;48.772;9.154;2022-10-31T12:00:55;98212.25;;;20.74;78.85
18850;BME280;4989;48.772;9.154;2022-10-31T12:06:23;98204.44;;;20.31;93.49
18850;BME280;4989;48.772;9.154;2022-10-31T12:16:56;98187.69;;;20.55;85.75
18850;BME280;4989;48.772;9.154;2022-10-31T12:43:56;98151.78;;;20.55;89.09
18850;BME280;4989;48.772;9.154;2022-10-31T12:54:50;98131.91;;;20.31;87.95
18850;BME280;4989;48.772;9.154;2022-10-31T13:00:05;98118.63;;;20.14;92.28
18850;BME280;4989;48.772;9.154;2022-10-31T13:10:41;98118.81;;;19.70;92.63
18850;BME280;4989;48.772;9.154;2022-10-31T13:15:55;98104.69;;;19.83;99.33
18850;BME280;4989;48.772;9.154;2022-10-31T13:21:02;98094.81;;;19.97;96.32
18850;BME280;4989;48.772;9.154;2022-10-31T13:31:23;98082.97;;;19.90;91.72
18850;BME280;4989;48.772;9.154;2022-10-31T13:41:44;98081.06;;;20.64;96.91
18850;BME280;4989;48.772;9.154;2022-10-31T13:46:49;98084.84;;;20.92;94.61
18850;BME280;4989;48.772;9.154;2022-10-31T13:51:52;98071.63;;;20.76;95.60
18850;BME280;4989;48.772;9.154;2022-10-31T13:56:55;98058.19;;;20.89;98.68
18850;BME280;4989;48.772;9.154;2022-10-31T14:02:00;98060.75;;;20.98;97.23
18850;BME280;4989;48.772;9.154;2022-10-31T14:07:16;98060.75;;;20.98;95.31
18850;BME280;4989;48.772;9.154;2022-10-31T14:12:39;98056.34;;;20.54;88.70
18850;BME280;4989;48.772;9.154;2022-10-31T14:17:56;98049.38;;;20.12;92.47
18850;BME280;4989;48.772;9.154;2022-10-31T14:28:34;98031.84;;;19.75;95.34
18850;BME280;4989;48.772;9.154;2022-10-31T14:33:37;98039.47;;;19.44;98.76
18850;BME280;4989;48.772;9.154;2022-10-31T14:54:50;98033.56;;;18.57;100.00
18850;BME280;4989;48.772;9.154;2022-10-31T15:00:01;98027.69;;;18.64;100.00
18850;BME280;4989;48.772;9.154;2022-10-31T15:05:10;98027.59;;;18.44;100.00
18850;BME280;4989;48.772;9.154;2022-10-31T15:15:25;98024.28;;;18.40;100.00
18850;BME280;4989;48.772;9.154;2022-10-31T15:20:30;98024.94;;;17.96;100.00
18850;BME280;4989;48.772;9.154;2022-10-31T15:25:35;98019.25;;;17.99;100.00
18850;BME280;4989;48.772;9.154;2022-10-31T15:30:38;98015.75;;;17.75;100.00
18850;BME280;4989;48.772;9.154;2022-10-31T15:35:40;98008.50;;;17.38;100.00
18850;BME280;4989;48.772;9.154;2022-10-31T15:40:59;98009.09;;;17.09;100.00
18850;BME280;4989;48.772;9.154;2022-10-31T15:46:06;98010.22;;;16.93;100.00
18850;BME280;4989;48.772;9.154;2022-10-31T15:51:10;98001.53;;;16.95;100.00
18850;BME280;4989;48.772;9.154;2022-10-31T15:56:21;97999.75;;;16.74;100.00
18850;BME280;4989;48.772;9.154;2022-10-31T16:01:26;97999.91;;;16.79;100.00
18850;BME280;4989;48.772;9.154;2022-10-31T16:06:30;97988.91;;;16.88;100.00
18850;BME280;4989;48.772;9.154;2022-10-31T16:11:38;98012.56;;;17.19;100.00
18850;BME280;4989;48.772;9.154;2022-10-31T16:16:46;97990.56;;;17.28;100.00
18850;BME280;4989;48.772;9.154;2022-10-31T16:22:02;97993.03;;;16.75;100.00
18850;BME280;4989;48.772;9.154;2022-10-31T16:27:15;97988.41;;;16.38;100.00
18850;BME280;4989;48.772;9.154;2022-10-31T16:32:33;97972.59;;;16.15;100.00
18850;BME280;4989;48.772;9.154;2022-10-31T16:37:40;97976.59;;;16.05;100.00
18850;BME280;4989;48.772;9.154;2022-10-31T16:42:43;97978.72;;;16.10;100.00
18850;BME280;4989;48.772;9.154;2022-10-31T16:47:47;97976.75;;;16.01;100.00
18850;BME280;4989;48.772;9.154;2022-10-31T16:52:50;97979.78;;;16.73;100.00
18850;BME280;4989;48.772;9.154;2022-10-31T16:58:32;97979.81;;;16.55;100.00
18850;BME280;4989;48.772;9.154;2022-10-31T17:03:36;97967.56;;;16.32;100.00
18850;BME280;4989;48.772;9.154;2022-10-31T17:08:38;97973.19;;;16.37;100.00
18850;BME280;4989;48.772;9.154;2022-10-31T17:13:41;97980.69;;;16.70;100.00
18850;BME280;4989;48.772;9.154;2022-10-31T17:18:43;97965.63;;;16.05;100.00
18850;BME280;4989;48.772;9.154;2022-10-31T17:23:49;97952.53;;;15.72;100.00
18850;BME280;4989;48.772;9.154;2022-10-31T17:28:51;97978.25;;;16.72;100.00
18850;BME280;4989;48.772;9.154;2022-10-31T17:33:56;97975.19;;;16.70;100.00
18850;BME280;4989;48.772;9.154;2022-10-31T17:39:04;97978.38;;;16.35;100.00
18850;BME280;4989;48.772;9.154;2022-10-31T17:44:10;97985.09;;;16.25;100.00
18850;BME280;4989;48.772;9.154;2022-10-31T17:49:13;97975.50;;;16.11;100.00
18850;BME280;4989;48.772;9.154;2022-10-31T17:54:15;97964.84;;;16.04;100.00
18850;BME280;4989;48.772;9.154;2022-10-31T17:59:19;97955.88;;;15.85;100.00
18850;BME280;4989;48.772;9.154;2022-10-31T18:04:22;97955.44;;;15.68;100.00
18850;BME280;4989;48.772;9.154;2022-10-31T18:09:25;97951.00;;;15.80;100.00
18850;BME280;4989;48.772;9.154;2022-10-31T18:14:27;97945.19;;;15.96;100.00
18850;BME280;4989;48.772;9.154;2022-10-31T18:19:30;97953.75;;;15.89;100.00
18850;BME280;4989;48.772;9.154;2022-10-31T18:24:33;97952.22;;;15.70;100.00
18850;BME280;4989;48.772;9.154;2022-10-31T18:29:35;97935.00;;;15.69;100.00
18850;BME280;4989;48.772;9.154;2022-10-31T18:34:38;97903.78;;;15.85;100.00
18850;BME280;4989;48.772;9.154;2022-10-31T18:39:40;97901.38;;;15.69;100.00
18850;BME280;4989;48.772;9.154;2022-10-31T18:44:42;97893.28;;;15.56;100.00
18850;BME280;4989;48.772;9.154;2022-10-31T18:49:45;97895.56;;;15.57;100.00
18850;BME280;4989;48.772;9.154;2022-10-31T18:54:47;97874.56;;;15.64;100.00
18850;BME280;4989;48.772;9.154;2022-10-31T18:59:50;97890.25;;;15.54;100.00
18850;BME280;4989;48.772;9.154;2022-10-31T19:04:52;97891.66;;;15.68;100.00
18850;BME280;4989;48.772;9.154;2022-10-31T19:09:54;97908.69;;;15.81;100.00
18850;BME280;4989;48.772;9.154;2022-10-31T19:14:57;97902.91;;;15.70;100.00
18850;BME280;4989;48.772;9.154;2022-10-31T19:20:00;97931.19;;;15.94;100.00
18850;BME280;4989;48.772;9.154;2022-10-31T19:25:03;97943.53;;;15.90;100.00
18850;BME280;4989;48.772;9.154;2022-10-31T19:30:11;97925.69;;;16.13;100.00
18850;BME280;4989;48.772;9.154;2022-10-31T19:35:14;97964.41;;;15.96;100.00
18850;BME280;4989;48.772;9.154;2022-10-31T19:40:17;97990.28;;;15.77;100.00
18850;BME280;4989;48.772;9.154;2022-10-31T19:45:20;97946.44;;;15.77;100.00
18850;BME280;4989;48.772;9.154;2022-10-31T19:50:22;97961.66;;;15.87;100.00
18850;BME280;4989;48.772;9.154;2022-10-31T19:55:24;97974.13;;;15.97;100.00
18850;BME280;4989;48.772;9.154;2022-10-31T20:00:27;97947.50;;;15.89;100.00
18850;BME280;4989;48.772;9.154;2022-10-31T20:05:30;97965.00;;;15.82;100.00
18850;BME280;4989;48.772;9.154;2022-10-31T20:10:33;97985.88;;;15.89;100.00
18850;BME280;4989;48.772;9.154;2022-10-31T20:15:35;97980.25;;;15.83;100.00
18850;BME280;4989;48.772;9.154;2022-10-31T20:20:38;97982.69;;;15.72;100.00
18850;BME280;4989;48.772;9.154;2022-10-31T20:25:47;97978.38;;;15.62;100.00
18850;BME280;4989;48.772;9.154;2022-10-31T20:30:50;97981.41;;;15.64;100.00
18850;BME280;4989;48.772;9.154;2022-10-31T20:35:52;97981.72;;;16.21;100.00
18850;BME280;4989;48.772;9.154;2022-10-31T20:41:02;97965.75;;;16.19;100.00
18850;BME280;4989;48.772;9.154;2022-10-31T20:46:06;97963.16;;;16.25;100.00
18850;BME280;4989;48.772;9.154;2022-10-31T20:51:14;97957.25;;;15.99;100.00
18850;BME280;4989;48.772;9.154;2022-10-31T20:56:37;97962.84;;;16.14;100.00
18850;BME280;4989;48.772;9.154;2022-10-31T21:01:40;97966.22;;;16.09;100.00
18850;BME280;4989;48.772;9.154;2022-10-31T21:06:42;97956.75;;;15.54;100.00
18850;BME280;4989;48.772;9.154;2022-10-31T21:11:50;97970.44;;;15.45;100.00
18850;BME280;4989;48.772;9.154;2022-10-31T21:16:53;97978.38;;;15.62;100.00
18850;BME280;4989;48.772;9.154;2022-10-31T21:21:56;97995.69;;;16.51;100.00
18850;BME280;4989;48.772;9.154;2022-10-31T21:26:59;97999.38;;;17.56;100.00
18850;BME280;4989;48.772;9.154;2022-10-31T21:32:04;98002.94;;;17.48;100.00
18850;BME280;4989;48.772;9.154;2022-10-31T21:37:06;98001.69;;;16.12;100.00
18850;BME280;4989;48.772;9.154;2022-10-31T21:42:08;98006.34;;;15.38;100.00
18850;BME280;4989;48.772;9.154;2022-10-31T21:47:11;97996.63;;;15.37;100.00
18850;BME280;4989;48.772;9.154;2022-10-31T21:52:13;97991.78;;;16.15;100.00
18850;BME280;4989;48.772;9.154;2022-10-31T21:57:16;98005.06;;;16.16;100.00
18850;BME280;4989;48.772;9.154;2022-10-31T22:02:18;98000.63;;;15.82;100.00
18850;BME280;4989;48.772;9.154;2022-10-31T22:07:20;97994.13;;;15.21;100.00
18850;BME280;4989;48.772;9.154;2022-10-31T22:12:23;97990.75;;;15.07;100.00
18850;BME280;4989;48.772;9.154;2022-10-31T22:17:26;97975.69;;;15.80;100.00
18850;BME280;4989;48.772;9.154;2022-10-31T22:22:29;97971.38;;;15.97;100.00
18850;BME280;4989;48.772;9.154;2022-10-31T22:27:31;97983.03;;;15.24;100.00
18850;BME280;4989;48.772;9.154;2022-10-31T22:32:34;97974.72;;;16.29;100.00
18850;BME280;4989;48.772;9.154;2022-10-31T22:37:36;97971.47;;;17.01;100.00
18850;BME280;4989;48.772;9.154;2022-10-31T22:42:39;97973.25;;;16.10;100.00
18850;BME280;4989;48.772;9.154;2022-10-31T22:47:41;97970.91;;;15.53;100.00
18850;BME280;4989;48.772;9.154;2022-10-31T22:52:44;97961.53;;;15.04;100.00
18850;BME280;4989;48.772;9.154;2022-10-31T22:57:46;97950.75;;;14.70;100.00
18850;BME280;4989;48.772;9.154;2022-10-31T23:02:48;97962.34;;;14.74;100.00
18850;BME280;4989;48.772;9.154;2022-10-31T23:07:51;97970.34;;;16.04;100.00
18850;BME280;4989;48.772;9.154;2022-10-31T23:12:53;97962.72;;;16.69;100.00
18850;BME280;4989;48.772;9.154;2022-10-31T23:18:15;97962.63;;;16.97;100.00
18850;BME280;4989;48.772;9.154;2022-10-31T23:23:37;97960.59;;;16.64;100.00
18850;BME280;4989;48.772;9.154;2022-10-31T23:28:39;97970.78;;;15.66;100.00
18850;BME280;4989;48.772;9.154;2022-10-31T23:33:42;97980.38;;;15.02;100.00
18850;BME280;4989;48.772;9.154;2022-10-31T23:38:44;97965.25;;;15.38;100.00
18850;BME280;4989;48.772;9.154;2022-10-31T23:43:46;97964.06;;;16.22;100.00
18850;BME280;4989;48.772;9.154;2022-10-31T23:48:49;97960.72;;;16.09;100.00
18850;BME280;4989;48.772;9.154;2022-10-31T23:53:54;97966.63;;;16.35;100.00
18850;BME280;4989;48.772;9.154;2022-10-31T23:58:58;97962.13;;;15.76;100.00
